createdAt,value
2022-11-13T00:00:18.977Z,99.44
2022-11-13T00:03:05.168Z,99.34
2022-11-13T00:06:01.569Z,99.23
2022-11-13T00:08:48.336Z,99.24
2022-11-13T00:11:34.501Z,99.12
2022-11-13T00:14:20.405Z,99.42
2022-11-13T00:17:06.270Z,99.25
2022-11-13T00:19:51.983Z,99.44
2022-11-13T00:22:37.779Z,99.00
2022-11-13T00:25:23.625Z,99.54
2022-11-13T00:28:09.705Z,99.74
2022-11-13T00:31:00.698Z,99.18
2022-11-13T00:36:52.752Z,99.19
2022-11-13T00:39:38.469Z,99.48
2022-11-13T00:42:24.705Z,99.30
2022-11-13T00:45:10.856Z,99.35
2022-11-13T00:47:56.962Z,99.55
2022-11-13T00:50:42.966Z,99.38
2022-11-13T00:53:28.827Z,99.15
2022-11-13T00:56:14.631Z,98.96
2022-11-13T00:59:00.407Z,99.47
2022-11-13T01:01:46.219Z,99.32
2022-11-13T01:04:32.039Z,99.84
2022-11-13T01:07:17.977Z,99.50
2022-11-13T01:10:06.105Z,99.13
2022-11-13T01:12:52.238Z,99.60
2022-11-13T01:15:45.370Z,99.44
2022-11-13T01:18:31.636Z,99.63
2022-11-13T01:21:21.824Z,99.89
2022-11-13T01:24:07.738Z,99.80
2022-11-13T01:26:53.864Z,99.71
2022-11-13T01:29:39.902Z,99.69
2022-11-13T01:32:25.894Z,99.87
2022-11-13T01:35:12.060Z,99.88
2022-11-13T01:37:58.025Z,100.00
2022-11-13T01:40:47.795Z,100.00
2022-11-13T01:43:37.559Z,100.00
2022-11-13T01:46:40.617Z,99.59
2022-11-13T01:49:33.776Z,99.78
2022-11-13T01:52:27.084Z,99.68
2022-11-13T01:55:17.505Z,99.73
2022-11-13T01:58:08.616Z,99.40
2022-11-13T02:00:54.908Z,99.15
2022-11-13T02:03:41.130Z,99.21
2022-11-13T02:06:36.919Z,99.76
2022-11-13T02:09:34.926Z,99.65
2022-11-13T02:12:32.712Z,99.77
2022-11-13T02:15:26.507Z,99.63
2022-11-13T02:18:15.196Z,99.39
2022-11-13T02:21:23.075Z,99.56
2022-11-13T02:24:29.192Z,99.50
2022-11-13T02:27:27.895Z,99.36
2022-11-13T02:30:27.557Z,99.43
2022-11-13T02:33:29.300Z,99.25
2022-11-13T02:36:16.559Z,99.29
2022-11-13T02:39:08.221Z,99.36
2022-11-13T02:41:54.711Z,99.17
2022-11-13T02:44:40.655Z,98.78
2022-11-13T02:47:26.487Z,99.15
2022-11-13T02:50:13.572Z,99.01
2022-11-13T02:52:59.816Z,98.74
2022-11-13T02:55:45.750Z,99.00
2022-11-13T02:58:31.866Z,98.74
2022-11-13T03:01:18.197Z,99.00
2022-11-13T03:04:04.341Z,98.73
2022-11-13T03:06:50.194Z,98.59
2022-11-13T03:09:37.103Z,98.98
2022-11-13T03:12:23.278Z,99.03
2022-11-13T03:15:10.264Z,99.02
2022-11-13T03:17:56.113Z,98.89
2022-11-13T03:20:43.922Z,98.83
2022-11-13T03:23:29.776Z,98.43
2022-11-13T03:26:17.614Z,98.77
2022-11-13T03:29:03.803Z,98.68
2022-11-13T03:31:49.658Z,98.49
2022-11-13T03:34:35.844Z,98.24
2022-11-13T03:37:21.701Z,98.38
2022-11-13T03:40:08.688Z,98.33
2022-11-13T03:42:54.638Z,97.73
2022-11-13T03:45:40.697Z,97.93
2022-11-13T03:48:26.686Z,97.44
2022-11-13T03:51:12.732Z,97.04
2022-11-13T03:54:00.205Z,97.45
2022-11-13T03:56:46.197Z,97.11
2022-11-13T03:59:32.139Z,96.79
2022-11-13T04:02:17.866Z,97.21
2022-11-13T04:05:04.162Z,96.46
2022-11-13T04:07:51.147Z,96.75
2022-11-13T04:10:37.193Z,96.50
2022-11-13T04:13:23.178Z,96.82
2022-11-13T04:16:09.032Z,96.98
2022-11-13T04:18:54.825Z,96.89
2022-11-13T04:21:40.600Z,97.09
2022-11-13T04:24:26.409Z,96.78
2022-11-13T04:27:12.181Z,97.11
2022-11-13T04:29:58.057Z,96.96
2022-11-13T04:32:43.994Z,97.12
2022-11-13T04:35:29.790Z,97.08
2022-11-13T04:38:15.749Z,96.71
2022-11-13T04:41:20.296Z,96.82
2022-11-13T04:44:06.406Z,97.03
2022-11-13T04:46:53.034Z,96.84
2022-11-13T04:49:38.794Z,96.89
2022-11-13T04:52:24.566Z,96.92
2022-11-13T04:55:11.818Z,96.81
2022-11-13T04:57:57.751Z,96.56
2022-11-13T05:00:43.684Z,96.83
2022-11-13T05:03:29.906Z,96.62
2022-11-13T05:06:15.941Z,96.81
2022-11-13T05:09:01.716Z,97.03
2022-11-13T05:11:47.517Z,97.11
2022-11-13T05:14:38.440Z,96.96
2022-11-13T05:17:24.379Z,97.48
2022-11-13T05:20:11.323Z,97.16
2022-11-13T05:22:57.239Z,96.73
2022-11-13T05:25:43.433Z,97.10
2022-11-13T05:28:29.780Z,97.38
2022-11-13T05:31:16.442Z,97.21
2022-11-13T05:34:06.370Z,97.06
2022-11-13T05:36:52.402Z,96.52
2022-11-13T05:39:38.042Z,96.38
2022-11-13T05:42:24.676Z,96.77
2022-11-13T05:45:10.872Z,96.96
2022-11-13T05:47:57.368Z,96.98
2022-11-13T05:50:43.229Z,97.00
2022-11-13T05:53:29.227Z,96.92
2022-11-13T05:56:26.689Z,96.42
2022-11-13T05:59:12.658Z,97.11
2022-11-13T06:01:58.653Z,96.74
2022-11-13T06:04:44.957Z,96.21
2022-11-13T06:07:30.713Z,96.34
2022-11-13T06:10:17.253Z,96.25
2022-11-13T06:13:03.108Z,96.67
2022-11-13T06:15:48.882Z,96.24
2022-11-13T06:18:35.809Z,96.08
2022-11-13T06:21:25.796Z,96.34
2022-11-13T06:24:13.396Z,96.16
2022-11-13T06:26:59.199Z,95.77
2022-11-13T06:29:46.947Z,95.53
2022-11-13T06:32:32.870Z,95.58
2022-11-13T06:35:18.634Z,95.22
2022-11-13T06:38:04.459Z,95.64
2022-11-13T06:40:50.302Z,95.35
2022-11-13T06:43:36.527Z,94.86
2022-11-13T06:46:27.147Z,94.48
2022-11-13T06:49:13.109Z,94.27
2022-11-13T06:51:58.919Z,94.73
2022-11-13T06:54:45.162Z,94.84
2022-11-13T06:57:31.082Z,95.08
2022-11-13T07:00:18.305Z,95.23
2022-11-13T07:03:04.443Z,94.63
2022-11-13T07:05:51.172Z,95.26
2022-11-13T07:08:37.589Z,95.58
2022-11-13T07:11:24.202Z,95.43
2022-11-13T07:14:12.842Z,95.02
2022-11-13T07:17:09.073Z,95.63
2022-11-13T07:19:56.236Z,95.30
2022-11-13T07:22:42.464Z,95.90
2022-11-13T07:25:30.477Z,95.49
2022-11-13T07:28:16.293Z,94.87
2022-11-13T07:31:03.435Z,95.08
2022-11-13T07:33:51.967Z,95.54
2022-11-13T07:36:38.073Z,95.13
2022-11-13T07:39:25.112Z,95.30
2022-11-13T07:42:11.019Z,95.20
2022-11-13T07:44:56.809Z,94.99
2022-11-13T07:47:42.629Z,95.59
2022-11-13T07:50:31.746Z,94.84
2022-11-13T07:53:19.021Z,95.54
2022-11-13T07:56:05.828Z,94.82
2022-11-13T07:58:51.922Z,94.87
2022-11-13T08:01:38.440Z,95.30
2022-11-13T08:04:24.863Z,94.85
2022-11-13T08:07:12.791Z,95.20
2022-11-13T08:09:58.697Z,94.85
2022-11-13T08:12:45.343Z,95.16
2022-11-13T08:15:32.833Z,94.68
2022-11-13T08:18:18.633Z,94.87
2022-11-13T08:21:09.171Z,94.68
2022-11-13T08:23:57.938Z,94.18
2022-11-13T08:26:43.741Z,94.03
2022-11-13T08:29:30.023Z,94.56
2022-11-13T08:32:19.324Z,94.89
2022-11-13T08:35:06.035Z,95.00
2022-11-13T08:37:52.207Z,95.14
2022-11-13T08:40:37.983Z,95.23
2022-11-13T08:43:23.855Z,95.39
2022-11-13T08:46:09.796Z,95.40
2022-11-13T08:48:55.682Z,94.93
2022-11-13T08:51:41.536Z,94.98
2022-11-13T08:54:28.352Z,95.35
2022-11-13T08:57:14.482Z,94.60
2022-11-13T09:00:01.853Z,95.13
2022-11-13T09:02:47.578Z,94.63
2022-11-13T09:05:33.358Z,94.70
2022-11-13T09:08:19.525Z,94.30
2022-11-13T09:11:06.646Z,94.43
2022-11-13T09:13:53.619Z,94.51
2022-11-13T09:16:40.608Z,93.08
2022-11-13T09:19:26.979Z,93.71
2022-11-13T09:22:13.228Z,93.64
2022-11-13T09:24:59.068Z,93.14
2022-11-13T09:27:56.764Z,92.04
2022-11-13T09:30:43.034Z,92.03
2022-11-13T09:33:28.827Z,90.28
2022-11-13T09:36:15.970Z,90.34
2022-11-13T09:39:02.160Z,91.63
2022-11-13T09:42:12.763Z,90.91
2022-11-13T09:45:12.470Z,90.25
2022-11-13T09:48:27.091Z,90.16
2022-11-13T09:51:22.693Z,89.67
2022-11-13T09:54:15.152Z,89.03
2022-11-13T09:57:31.067Z,89.11
2022-11-13T10:00:20.985Z,88.84
2022-11-13T10:07:10.075Z,87.71
2022-11-13T10:10:36.991Z,86.63
2022-11-13T10:13:34.586Z,85.23
2022-11-13T10:16:56.332Z,83.53
2022-11-13T10:19:58.584Z,82.31
2022-11-13T10:22:55.072Z,82.01
2022-11-13T10:25:42.719Z,81.70
2022-11-13T10:28:49.357Z,80.93
2022-11-13T10:31:47.528Z,80.01
2022-11-13T10:34:33.384Z,79.40
2022-11-13T10:37:50.062Z,79.91
2022-11-13T10:40:40.802Z,79.35
2022-11-13T10:43:27.377Z,78.32
2022-11-13T10:46:25.420Z,77.53
2022-11-13T10:49:21.720Z,77.87
2022-11-13T10:52:30.478Z,77.27
2022-11-13T10:55:38.123Z,76.87
2022-11-13T10:58:24.333Z,76.73
2022-11-13T11:01:25.830Z,75.42
2022-11-13T11:04:29.554Z,76.04
2022-11-13T11:07:21.812Z,75.58
2022-11-13T11:10:57.113Z,75.07
2022-11-13T11:13:43.543Z,75.24
2022-11-13T11:16:29.490Z,75.26
2022-11-13T11:19:18.606Z,74.79
2022-11-13T11:22:16.765Z,72.26
2022-11-13T11:25:13.701Z,72.82
2022-11-13T11:28:16.976Z,71.73
2022-11-13T11:31:37.385Z,71.40
2022-11-13T11:34:46.027Z,70.92
2022-11-13T11:37:41.269Z,71.65
2022-11-13T11:41:01.096Z,71.25
2022-11-13T11:44:04.334Z,71.53
2022-11-13T11:46:50.376Z,70.90
2022-11-13T11:49:36.574Z,70.76
2022-11-13T11:52:55.301Z,69.62
2022-11-13T11:56:04.599Z,70.04
2022-11-13T11:59:31.296Z,67.94
2022-11-13T12:02:38.417Z,68.33
2022-11-13T12:05:59.103Z,66.63
2022-11-13T12:09:33.616Z,67.69
2022-11-13T12:12:48.908Z,67.56
2022-11-13T12:16:05.222Z,68.00
2022-11-13T12:19:05.369Z,67.55
2022-11-13T12:22:29.654Z,67.28
2022-11-13T12:25:38.696Z,67.30
2022-11-13T12:28:38.329Z,67.14
2022-11-13T12:32:01.857Z,67.12
2022-11-13T12:34:55.233Z,66.67
2022-11-13T12:38:02.637Z,66.05
2022-11-13T12:41:20.462Z,66.18
2022-11-13T12:44:28.793Z,66.04
2022-11-13T12:47:15.719Z,65.63
2022-11-13T12:50:07.112Z,65.44
2022-11-13T12:53:06.906Z,64.23
2022-11-13T12:56:10.171Z,64.90
2022-11-13T12:59:35.038Z,63.73
2022-11-13T13:03:10.161Z,64.29
2022-11-13T13:06:29.634Z,63.62
2022-11-13T13:09:35.132Z,63.09
2022-11-13T13:12:36.407Z,63.30
2022-11-13T13:15:36.791Z,63.55
2022-11-13T13:18:23.031Z,63.41
2022-11-13T13:21:17.585Z,63.00
2022-11-13T13:24:34.784Z,63.51
2022-11-13T13:27:24.667Z,63.78
2022-11-13T13:30:26.434Z,63.19
2022-11-13T13:33:53.512Z,63.92
2022-11-13T13:36:45.328Z,64.21
2022-11-13T13:40:08.105Z,64.65
2022-11-13T13:43:20.610Z,63.55
2022-11-13T13:46:24.561Z,63.28
2022-11-13T13:49:20.270Z,62.92
2022-11-13T13:52:06.905Z,63.70
2022-11-13T13:54:52.650Z,63.82
2022-11-13T13:57:42.316Z,63.43
2022-11-13T14:00:29.107Z,63.58
2022-11-13T14:03:25.140Z,63.77
2022-11-13T14:06:22.689Z,63.73
2022-11-13T14:09:17.049Z,64.00
2022-11-13T14:12:18.773Z,64.58
2022-11-13T14:15:22.625Z,65.02
2022-11-13T14:18:16.914Z,64.34
2022-11-13T14:21:16.594Z,64.40
2022-11-13T14:24:03.589Z,64.66
2022-11-13T14:26:54.236Z,64.61
2022-11-13T14:29:50.458Z,64.74
2022-11-13T14:32:45.720Z,64.47
2022-11-13T14:35:33.764Z,65.04
2022-11-13T14:38:25.827Z,64.02
2022-11-13T14:41:40.239Z,64.43
2022-11-13T14:44:35.043Z,64.95
2022-11-13T14:47:37.187Z,65.40
2022-11-13T14:50:33.813Z,65.67
2022-11-13T14:53:38.296Z,65.46
2022-11-13T14:56:41.201Z,65.08
2022-11-13T14:59:29.284Z,65.25
2022-11-13T15:02:15.497Z,65.48
2022-11-13T15:05:01.676Z,65.55
2022-11-13T15:07:48.623Z,65.33
2022-11-13T15:10:34.575Z,65.63
2022-11-13T15:13:20.453Z,65.02
2022-11-13T15:16:12.014Z,65.48
2022-11-13T15:19:16.573Z,65.55
2022-11-13T15:22:26.001Z,65.65
2022-11-13T15:25:18.232Z,66.22
2022-11-13T15:28:04.487Z,66.49
2022-11-13T15:30:51.966Z,66.03
2022-11-13T15:33:37.650Z,67.04
2022-11-13T15:36:23.691Z,67.22
2022-11-13T15:39:21.140Z,67.26
2022-11-13T15:42:18.397Z,67.39
2022-11-13T15:45:08.284Z,68.11
2022-11-13T15:47:54.292Z,68.27
2022-11-13T15:50:40.270Z,68.27
2022-11-13T15:53:26.434Z,68.51
2022-11-13T15:56:13.046Z,69.25
2022-11-13T15:58:59.781Z,69.18
2022-11-13T16:01:46.748Z,69.54
2022-11-13T16:04:54.652Z,69.72
2022-11-13T16:07:42.152Z,70.00
2022-11-13T16:10:28.701Z,70.20
2022-11-13T16:13:14.441Z,70.61
2022-11-13T16:16:01.064Z,70.82
2022-11-13T16:18:47.093Z,70.87
2022-11-13T16:21:33.047Z,71.16
2022-11-13T16:24:22.653Z,71.43
2022-11-13T16:27:20.473Z,71.58
2022-11-13T16:30:14.215Z,71.78
2022-11-13T16:33:00.000Z,72.33
2022-11-13T16:35:46.094Z,72.46
2022-11-13T16:38:32.255Z,72.43
2022-11-13T16:41:18.240Z,72.82
2022-11-13T16:44:04.313Z,73.03
2022-11-13T16:46:50.492Z,73.37
2022-11-13T16:49:36.533Z,73.51
2022-11-13T16:52:22.550Z,73.69
2022-11-13T16:55:09.201Z,74.49
2022-11-13T16:57:58.063Z,74.43
2022-11-13T17:00:46.474Z,74.93
2022-11-13T17:03:35.605Z,74.84
2022-11-13T17:06:39.644Z,75.11
2022-11-13T17:09:29.390Z,75.34
2022-11-13T17:12:19.083Z,76.29
2022-11-13T17:15:09.252Z,75.98
2022-11-13T17:17:58.648Z,75.86
2022-11-13T17:20:45.084Z,76.04
2022-11-13T17:23:31.198Z,76.40
2022-11-13T17:26:17.534Z,77.34
2022-11-13T17:29:05.643Z,77.02
2022-11-13T17:31:51.628Z,77.83
2022-11-13T17:34:37.636Z,78.21
2022-11-13T17:37:25.314Z,78.05
2022-11-13T17:40:13.929Z,78.25
2022-11-13T17:43:01.959Z,78.48
2022-11-13T17:45:52.021Z,78.78
2022-11-13T17:48:38.994Z,79.32
2022-11-13T17:51:25.079Z,79.40
2022-11-13T17:54:14.011Z,79.72
2022-11-13T17:57:02.083Z,80.15
2022-11-13T17:59:48.174Z,80.32
2022-11-13T18:02:34.090Z,80.21
2022-11-13T18:05:20.389Z,81.00
2022-11-13T18:08:06.446Z,81.08
2022-11-13T18:10:52.313Z,81.39
2022-11-13T18:13:38.695Z,80.93
2022-11-13T18:16:31.380Z,81.67
2022-11-13T18:19:17.310Z,81.45
2022-11-13T18:22:03.434Z,81.29
2022-11-13T18:24:49.646Z,81.41
2022-11-13T18:27:36.760Z,81.44
2022-11-13T18:30:23.059Z,81.81
2022-11-13T18:33:11.089Z,81.58
2022-11-13T18:35:57.180Z,81.52
2022-11-13T18:38:43.473Z,82.04
2022-11-13T18:41:30.432Z,83.07
2022-11-13T18:44:18.097Z,83.11
2022-11-13T18:47:45.758Z,82.92
2022-11-13T18:50:31.648Z,82.64
2022-11-13T18:53:17.856Z,82.88
2022-11-13T18:56:43.681Z,83.13
2022-11-13T18:59:30.012Z,83.17
2022-11-13T19:02:18.577Z,83.37
2022-11-13T19:05:04.695Z,83.64
2022-11-13T19:07:50.925Z,83.27
2022-11-13T19:10:36.837Z,83.22
2022-11-13T19:13:22.934Z,83.62
2022-11-13T19:16:13.161Z,83.63
2022-11-13T19:19:03.537Z,84.04
2022-11-13T19:21:50.581Z,83.79
2022-11-13T19:24:36.598Z,84.46
2022-11-13T19:27:22.921Z,84.14
2022-11-13T19:30:10.292Z,84.67
2022-11-13T19:32:57.668Z,84.19
2022-11-13T19:35:45.700Z,84.72
2022-11-13T19:38:32.916Z,84.97
2022-11-13T20:12:32.954Z,86.28
2022-11-13T20:15:19.169Z,86.89
2022-11-13T20:18:05.127Z,87.61
2022-11-13T20:20:54.719Z,87.99
2022-11-13T20:23:41.419Z,88.32
2022-11-13T20:26:28.315Z,88.48
2022-11-13T20:29:14.095Z,88.53
2022-11-13T20:32:00.854Z,88.55
2022-11-13T20:34:46.935Z,88.14
2022-11-13T20:37:33.284Z,87.66
2022-11-13T20:40:19.424Z,87.59
2022-11-13T20:43:05.649Z,87.77
2022-11-13T20:46:00.330Z,87.83
2022-11-13T20:48:47.379Z,87.75
2022-11-13T20:51:33.621Z,87.80
2022-11-13T20:54:19.789Z,87.54
2022-11-13T20:57:05.473Z,87.45
2022-11-13T20:59:51.274Z,87.94
2022-11-13T21:02:37.229Z,87.74
2022-11-13T21:05:23.166Z,87.94
2022-11-13T21:08:11.933Z,87.59
2022-11-13T21:11:02.743Z,87.79
2022-11-13T21:13:49.727Z,87.95
2022-11-13T21:16:35.391Z,88.10
2022-11-13T21:19:22.352Z,88.41
2022-11-13T21:22:08.204Z,88.51
2022-11-13T21:24:53.827Z,88.66
2022-11-13T21:27:39.561Z,88.38
2022-11-13T21:30:25.482Z,88.48
2022-11-13T21:33:11.552Z,88.26
2022-11-13T21:36:09.497Z,87.80
2022-11-13T21:38:56.448Z,87.93
2022-11-13T21:41:42.552Z,88.09
2022-11-13T21:44:28.336Z,87.76
2022-11-13T21:47:14.343Z,87.57
2022-11-13T21:50:00.484Z,87.65
2022-11-13T21:52:46.446Z,87.76
2022-11-13T21:55:32.614Z,87.67
2022-11-13T21:58:18.739Z,87.82
2022-11-13T22:01:05.612Z,88.23
2022-11-13T22:03:52.029Z,87.91
2022-11-13T22:06:39.738Z,87.54
2022-11-13T22:09:25.995Z,87.72
2022-11-13T22:12:11.835Z,87.25
2022-11-13T22:14:57.770Z,87.39
2022-11-13T22:17:43.659Z,87.86
2022-11-13T22:20:29.601Z,87.58
2022-11-13T22:23:18.383Z,87.51
2022-11-13T22:26:12.284Z,87.75
2022-11-13T22:29:00.200Z,87.65
2022-11-13T22:31:46.641Z,87.35
2022-11-13T22:34:32.734Z,87.64
2022-11-13T22:37:18.532Z,87.71
2022-11-13T22:40:04.950Z,87.71
2022-11-13T22:42:55.655Z,87.54
2022-11-13T22:45:41.649Z,87.89
2022-11-13T22:48:28.257Z,88.03
2022-11-13T22:51:17.446Z,87.96
2022-11-13T22:54:07.384Z,87.99
2022-11-13T22:56:53.265Z,87.54
2022-11-13T22:59:39.186Z,88.10
2022-11-13T23:02:25.066Z,87.54
2022-11-13T23:05:10.986Z,87.92
2022-11-13T23:07:57.030Z,88.15
2022-11-13T23:10:43.244Z,87.97
2022-11-13T23:13:29.369Z,88.12
2022-11-13T23:16:16.606Z,88.20
2022-11-13T23:19:03.908Z,88.55
2022-11-13T23:21:50.021Z,88.43
2022-11-13T23:24:36.363Z,88.26
2022-11-13T23:27:22.410Z,87.71
2022-11-13T23:30:09.539Z,88.26
2022-11-13T23:33:01.642Z,87.95
2022-11-13T23:35:48.080Z,88.28
2022-11-13T23:38:34.057Z,88.33
2022-11-13T23:41:20.192Z,88.04
2022-11-13T23:44:09.191Z,88.09
2022-11-13T23:46:55.959Z,87.70
2022-11-13T23:49:42.334Z,88.28
2022-11-13T23:52:28.515Z,88.56
2022-11-13T23:55:15.795Z,88.21
2022-11-13T23:58:04.530Z,88.54
